Terminal Aerodrome Forecast
Issued by NWS

Home | Current Version | Previous Version | Text Only | Print | Product List | Glossary On
Versions: 1 2 3 4 5 6 7 8 9 10 11 12
193
FTUS43 KOAX 231733
TAFBFF
TAF
KBFF 231733Z 2318/2418 33025G35KT P6SM SCT250
     FM240100 32010KT P6SM SCT200
     FM241500 32014G24KT P6SM SKC=

USA.gov is the U.S. government's official web portal to all federal, state and local government web resources and services.